sensor_id;sensor_type;location;lat;lon;timestamp;P1;durP1;ratioP1;P2;durP2;ratioP2
48268;SDS011;34088;52.232;5.196;2023-02-18T00:02:01;54.78;;;20.02;;
48268;SDS011;34088;52.232;5.196;2023-02-18T00:04:27;55.10;;;20.42;;
48268;SDS011;34088;52.232;5.196;2023-02-18T00:06:53;67.55;;;21.75;;
48268;SDS011;34088;52.232;5.196;2023-02-18T00:09:18;50.67;;;19.80;;
48268;SDS011;34088;52.232;5.196;2023-02-18T00:11:44;51.63;;;19.88;;
48268;SDS011;34088;52.232;5.196;2023-02-18T00:14:12;56.90;;;20.42;;
48268;SDS011;34088;52.232;5.196;2023-02-18T00:16:39;59.92;;;21.77;;
48268;SDS011;34088;52.232;5.196;2023-02-18T00:32:59;61.22;;;22.55;;
48268;SDS011;34088;52.232;5.196;2023-02-18T00:35:25;52.03;;;22.48;;
48268;SDS011;34088;52.232;5.196;2023-02-18T00:37:51;69.32;;;24.80;;
48268;SDS011;34088;52.232;5.196;2023-02-18T00:40:17;64.13;;;25.38;;
48268;SDS011;34088;52.232;5.196;2023-02-18T00:42:43;69.88;;;27.98;;
48268;SDS011;34088;52.232;5.196;2023-02-18T00:45:09;67.30;;;29.25;;
48268;SDS011;34088;52.232;5.196;2023-02-18T00:47:34;73.07;;;29.73;;
48268;SDS011;34088;52.232;5.196;2023-02-18T00:50:00;83.68;;;32.58;;
48268;SDS011;34088;52.232;5.196;2023-02-18T00:52:25;87.30;;;35.60;;
48268;SDS011;34088;52.232;5.196;2023-02-18T00:54:51;84.68;;;34.20;;
48268;SDS011;34088;52.232;5.196;2023-02-18T00:57:16;83.95;;;35.20;;
48268;SDS011;34088;52.232;5.196;2023-02-18T00:59:42;75.72;;;32.63;;
48268;SDS011;34088;52.232;5.196;2023-02-18T01:02:07;80.90;;;34.65;;
48268;SDS011;34088;52.232;5.196;2023-02-18T01:04:33;79.68;;;35.28;;
48268;SDS011;34088;52.232;5.196;2023-02-18T01:06:59;77.50;;;34.05;;
48268;SDS011;34088;52.232;5.196;2023-02-18T01:09:24;85.65;;;35.65;;
48268;SDS011;34088;52.232;5.196;2023-02-18T01:11:50;84.05;;;35.67;;
48268;SDS011;34088;52.232;5.196;2023-02-18T01:14:15;82.55;;;37.25;;
48268;SDS011;34088;52.232;5.196;2023-02-18T01:16:41;95.45;;;37.95;;
48268;SDS011;34088;52.232;5.196;2023-02-18T01:19:06;89.13;;;38.10;;
48268;SDS011;34088;52.232;5.196;2023-02-18T01:21:32;93.40;;;38.13;;
48268;SDS011;34088;52.232;5.196;2023-02-18T01:23:58;93.72;;;37.63;;
48268;SDS011;34088;52.232;5.196;2023-02-18T01:26:23;97.65;;;39.20;;
48268;SDS011;34088;52.232;5.196;2023-02-18T01:28:49;97.53;;;39.17;;
48268;SDS011;34088;52.232;5.196;2023-02-18T01:31:14;97.93;;;40.13;;
48268;SDS011;34088;52.232;5.196;2023-02-18T01:33:40;100.38;;;39.10;;
48268;SDS011;34088;52.232;5.196;2023-02-18T01:36:07;99.13;;;38.58;;
48268;SDS011;34088;52.232;5.196;2023-02-18T01:38:33;107.55;;;40.28;;
48268;SDS011;34088;52.232;5.196;2023-02-18T01:40:59;98.43;;;38.67;;
48268;SDS011;34088;52.232;5.196;2023-02-18T01:43:25;104.43;;;39.80;;
48268;SDS011;34088;52.232;5.196;2023-02-18T01:45:55;117.47;;;42.80;;
48268;SDS011;34088;52.232;5.196;2023-02-18T01:48:28;119.63;;;43.63;;
48268;SDS011;34088;52.232;5.196;2023-02-18T01:51:18;127.18;;;44.30;;
48268;SDS011;34088;52.232;5.196;2023-02-18T01:56:39;131.13;;;45.22;;
48268;SDS011;34088;52.232;5.196;2023-02-18T01:59:10;137.43;;;45.35;;
48268;SDS011;34088;52.232;5.196;2023-02-18T02:01:38;136.02;;;46.20;;
48268;SDS011;34088;52.232;5.196;2023-02-18T02:04:06;138.75;;;46.35;;
48268;SDS011;34088;52.232;5.196;2023-02-18T02:06:32;148.98;;;47.17;;
48268;SDS011;34088;52.232;5.196;2023-02-18T02:08:58;164.93;;;49.13;;
48268;SDS011;34088;52.232;5.196;2023-02-18T02:11:30;150.48;;;48.83;;
48268;SDS011;34088;52.232;5.196;2023-02-18T02:19:50;160.93;;;46.60;;
48268;SDS011;34088;52.232;5.196;2023-02-18T02:25:50;155.13;;;48.95;;
48268;SDS011;34088;52.232;5.196;2023-02-18T02:36:54;172.35;;;47.30;;
48268;SDS011;34088;52.232;5.196;2023-02-18T02:39:42;137.95;;;43.33;;
48268;SDS011;34088;52.232;5.196;2023-02-18T02:45:10;166.57;;;48.22;;
48268;SDS011;34088;52.232;5.196;2023-02-18T02:53:05;194.57;;;57.90;;
48268;SDS011;34088;52.232;5.196;2023-02-18T02:55:35;180.90;;;50.15;;
48268;SDS011;34088;52.232;5.196;2023-02-18T02:58:01;194.13;;;51.90;;
48268;SDS011;34088;52.232;5.196;2023-02-18T03:03:30;160.35;;;47.05;;
48268;SDS011;34088;52.232;5.196;2023-02-18T03:06:06;163.55;;;49.92;;
48268;SDS011;34088;52.232;5.196;2023-02-18T03:11:26;194.18;;;50.33;;
48268;SDS011;34088;52.232;5.196;2023-02-18T03:14:16;157.52;;;47.65;;
48268;SDS011;34088;52.232;5.196;2023-02-18T03:21:57;170.05;;;48.97;;
48268;SDS011;34088;52.232;5.196;2023-02-18T03:26:55;159.10;;;48.90;;
48268;SDS011;34088;52.232;5.196;2023-02-18T03:29:25;151.65;;;48.58;;
48268;SDS011;34088;52.232;5.196;2023-02-18T03:31:52;137.68;;;46.35;;
48268;SDS011;34088;52.232;5.196;2023-02-18T03:34:22;146.38;;;46.38;;
48268;SDS011;34088;52.232;5.196;2023-02-18T03:36:52;139.38;;;47.22;;
48268;SDS011;34088;52.232;5.196;2023-02-18T03:39:19;130.25;;;44.25;;
48268;SDS011;34088;52.232;5.196;2023-02-18T03:41:46;117.20;;;43.60;;
48268;SDS011;34088;52.232;5.196;2023-02-18T03:44:11;128.82;;;43.83;;
48268;SDS011;34088;52.232;5.196;2023-02-18T03:46:38;127.47;;;45.50;;
48268;SDS011;34088;52.232;5.196;2023-02-18T03:49:07;127.22;;;44.83;;
48268;SDS011;34088;52.232;5.196;2023-02-18T03:51:33;139.30;;;43.40;;
48268;SDS011;34088;52.232;5.196;2023-02-18T03:53:59;123.47;;;41.85;;
48268;SDS011;34088;52.232;5.196;2023-02-18T03:56:24;117.70;;;41.92;;
48268;SDS011;34088;52.232;5.196;2023-02-18T03:58:50;104.75;;;37.63;;
48268;SDS011;34088;52.232;5.196;2023-02-18T04:01:15;98.25;;;35.05;;
48268;SDS011;34088;52.232;5.196;2023-02-18T04:03:41;76.85;;;30.17;;
48268;SDS011;34088;52.232;5.196;2023-02-18T04:06:07;60.03;;;26.98;;
48268;SDS011;34088;52.232;5.196;2023-02-18T04:08:32;62.08;;;26.55;;
48268;SDS011;34088;52.232;5.196;2023-02-18T04:10:58;56.20;;;24.10;;
48268;SDS011;34088;52.232;5.196;2023-02-18T04:13:23;47.70;;;21.25;;
48268;SDS011;34088;52.232;5.196;2023-02-18T04:15:50;49.05;;;21.02;;
48268;SDS011;34088;52.232;5.196;2023-02-18T04:18:16;33.78;;;17.58;;
48268;SDS011;34088;52.232;5.196;2023-02-18T04:20:42;32.13;;;16.85;;
48268;SDS011;34088;52.232;5.196;2023-02-18T04:23:07;30.80;;;14.95;;
48268;SDS011;34088;52.232;5.196;2023-02-18T04:25:33;27.05;;;15.23;;
48268;SDS011;34088;52.232;5.196;2023-02-18T04:27:59;27.45;;;15.30;;
48268;SDS011;34088;52.232;5.196;2023-02-18T04:30:24;26.88;;;14.93;;
48268;SDS011;34088;52.232;5.196;2023-02-18T04:32:50;25.42;;;15.90;;
48268;SDS011;34088;52.232;5.196;2023-02-18T04:35:15;24.08;;;15.45;;
48268;SDS011;34088;52.232;5.196;2023-02-18T04:37:41;24.50;;;16.58;;
48268;SDS011;34088;52.232;5.196;2023-02-18T04:40:07;24.42;;;15.18;;
48268;SDS011;34088;52.232;5.196;2023-02-18T04:42:33;25.98;;;15.80;;
48268;SDS011;34088;52.232;5.196;2023-02-18T04:44:58;20.98;;;14.52;;
48268;SDS011;34088;52.232;5.196;2023-02-18T04:47:24;24.35;;;16.02;;
48268;SDS011;34088;52.232;5.196;2023-02-18T04:49:49;22.05;;;14.85;;
48268;SDS011;34088;52.232;5.196;2023-02-18T04:52:15;23.70;;;14.13;;
48268;SDS011;34088;52.232;5.196;2023-02-18T04:54:41;19.52;;;13.02;;
48268;SDS011;34088;52.232;5.196;2023-02-18T04:57:06;25.90;;;15.32;;
48268;SDS011;34088;52.232;5.196;2023-02-18T04:59:32;20.30;;;14.57;;
48268;SDS011;34088;52.232;5.196;2023-02-18T05:01:58;25.55;;;16.23;;
48268;SDS011;34088;52.232;5.196;2023-02-18T05:04:23;25.70;;;14.85;;
48268;SDS011;34088;52.232;5.196;2023-02-18T05:06:49;26.00;;;15.32;;
48268;SDS011;34088;52.232;5.196;2023-02-18T05:09:14;25.85;;;15.20;;
48268;SDS011;34088;52.232;5.196;2023-02-18T05:11:40;27.98;;;16.20;;
48268;SDS011;34088;52.232;5.196;2023-02-18T05:14:06;28.20;;;16.45;;
48268;SDS011;34088;52.232;5.196;2023-02-18T05:16:31;31.13;;;17.15;;
48268;SDS011;34088;52.232;5.196;2023-02-18T05:18:57;33.78;;;18.10;;
48268;SDS011;34088;52.232;5.196;2023-02-18T05:21:22;30.92;;;17.73;;
48268;SDS011;34088;52.232;5.196;2023-02-18T05:23:48;27.73;;;16.05;;
48268;SDS011;34088;52.232;5.196;2023-02-18T05:26:14;25.35;;;15.98;;
48268;SDS011;34088;52.232;5.196;2023-02-18T05:28:39;26.75;;;15.77;;
48268;SDS011;34088;52.232;5.196;2023-02-18T05:31:05;28.52;;;16.65;;
48268;SDS011;34088;52.232;5.196;2023-02-18T05:33:30;31.90;;;17.70;;
48268;SDS011;34088;52.232;5.196;2023-02-18T05:35:56;28.95;;;17.35;;
48268;SDS011;34088;52.232;5.196;2023-02-18T05:38:21;29.80;;;17.10;;
48268;SDS011;34088;52.232;5.196;2023-02-18T05:40:47;30.73;;;18.27;;
48268;SDS011;34088;52.232;5.196;2023-02-18T05:43:13;37.42;;;19.77;;
48268;SDS011;34088;52.232;5.196;2023-02-18T05:45:39;33.30;;;18.70;;
48268;SDS011;34088;52.232;5.196;2023-02-18T05:48:04;33.20;;;20.05;;
48268;SDS011;34088;52.232;5.196;2023-02-18T05:50:30;38.63;;;21.98;;
48268;SDS011;34088;52.232;5.196;2023-02-18T05:52:56;35.63;;;21.38;;
48268;SDS011;34088;52.232;5.196;2023-02-18T05:55:21;36.53;;;20.98;;
48268;SDS011;34088;52.232;5.196;2023-02-18T05:57:48;36.72;;;21.02;;
48268;SDS011;34088;52.232;5.196;2023-02-18T06:00:14;35.85;;;20.42;;
48268;SDS011;34088;52.232;5.196;2023-02-18T06:02:40;34.00;;;20.10;;
48268;SDS011;34088;52.232;5.196;2023-02-18T06:05:06;33.05;;;19.83;;
48268;SDS011;34088;52.232;5.196;2023-02-18T06:07:32;34.97;;;21.15;;
48268;SDS011;34088;52.232;5.196;2023-02-18T06:09:58;35.03;;;19.38;;
48268;SDS011;34088;52.232;5.196;2023-02-18T06:12:23;30.25;;;19.23;;
48268;SDS011;34088;52.232;5.196;2023-02-18T06:14:49;31.63;;;19.67;;
48268;SDS011;34088;52.232;5.196;2023-02-18T06:17:15;32.30;;;19.88;;
48268;SDS011;34088;52.232;5.196;2023-02-18T06:19:42;31.70;;;18.33;;
48268;SDS011;34088;52.232;5.196;2023-02-18T06:22:08;32.97;;;19.52;;
48268;SDS011;34088;52.232;5.196;2023-02-18T06:24:34;29.63;;;17.63;;
48268;SDS011;34088;52.232;5.196;2023-02-18T06:26:59;31.92;;;18.50;;
48268;SDS011;34088;52.232;5.196;2023-02-18T06:29:25;31.20;;;18.60;;
48268;SDS011;34088;52.232;5.196;2023-02-18T06:31:53;32.88;;;19.17;;
48268;SDS011;34088;52.232;5.196;2023-02-18T06:34:19;27.27;;;17.92;;
48268;SDS011;34088;52.232;5.196;2023-02-18T06:36:44;30.50;;;18.67;;
48268;SDS011;34088;52.232;5.196;2023-02-18T06:39:10;30.80;;;17.98;;
48268;SDS011;34088;52.232;5.196;2023-02-18T06:41:36;29.33;;;17.65;;
48268;SDS011;34088;52.232;5.196;2023-02-18T06:44:01;30.98;;;18.58;;
48268;SDS011;34088;52.232;5.196;2023-02-18T06:46:27;31.33;;;19.63;;
48268;SDS011;34088;52.232;5.196;2023-02-18T06:48:52;30.23;;;17.52;;
48268;SDS011;34088;52.232;5.196;2023-02-18T06:51:18;30.08;;;18.38;;
48268;SDS011;34088;52.232;5.196;2023-02-18T06:53:44;28.92;;;16.98;;
48268;SDS011;34088;52.232;5.196;2023-02-18T06:56:10;30.38;;;16.50;;
48268;SDS011;34088;52.232;5.196;2023-02-18T06:58:36;33.33;;;18.08;;
48268;SDS011;34088;52.232;5.196;2023-02-18T07:01:02;33.40;;;18.10;;
48268;SDS011;34088;52.232;5.196;2023-02-18T07:03:28;33.53;;;18.70;;
48268;SDS011;34088;52.232;5.196;2023-02-18T07:05:53;30.38;;;17.38;;
48268;SDS011;34088;52.232;5.196;2023-02-18T07:08:19;29.95;;;16.23;;
48268;SDS011;34088;52.232;5.196;2023-02-18T07:10:44;34.00;;;17.00;;
48268;SDS011;34088;52.232;5.196;2023-02-18T07:13:11;30.92;;;16.15;;
48268;SDS011;34088;52.232;5.196;2023-02-18T07:15:36;34.50;;;16.15;;
48268;SDS011;34088;52.232;5.196;2023-02-18T07:18:02;26.85;;;14.68;;
48268;SDS011;34088;52.232;5.196;2023-02-18T07:20:28;34.08;;;14.70;;
48268;SDS011;34088;52.232;5.196;2023-02-18T07:22:53;29.85;;;13.82;;
48268;SDS011;34088;52.232;5.196;2023-02-18T07:25:19;30.55;;;13.48;;
48268;SDS011;34088;52.232;5.196;2023-02-18T07:27:45;29.17;;;12.48;;
48268;SDS011;34088;52.232;5.196;2023-02-18T07:30:10;27.48;;;12.93;;
48268;SDS011;34088;52.232;5.196;2023-02-18T07:32:36;28.27;;;12.57;;
48268;SDS011;34088;52.232;5.196;2023-02-18T07:35:03;29.10;;;13.35;;
48268;SDS011;34088;52.232;5.196;2023-02-18T07:37:29;33.97;;;13.80;;
48268;SDS011;34088;52.232;5.196;2023-02-18T07:39:55;26.13;;;12.05;;
48268;SDS011;34088;52.232;5.196;2023-02-18T07:42:20;30.02;;;11.25;;
48268;SDS011;34088;52.232;5.196;2023-02-18T07:44:46;24.17;;;9.88;;
48268;SDS011;34088;52.232;5.196;2023-02-18T07:47:12;23.35;;;10.07;;
48268;SDS011;34088;52.232;5.196;2023-02-18T07:49:39;21.45;;;9.20;;
48268;SDS011;34088;52.232;5.196;2023-02-18T07:52:05;22.85;;;9.68;;
48268;SDS011;34088;52.232;5.196;2023-02-18T07:54:30;27.90;;;8.90;;
48268;SDS011;34088;52.232;5.196;2023-02-18T07:56:56;24.05;;;8.70;;
48268;SDS011;34088;52.232;5.196;2023-02-18T07:59:22;24.05;;;7.43;;
48268;SDS011;34088;52.232;5.196;2023-02-18T08:01:47;27.55;;;7.40;;
48268;SDS011;34088;52.232;5.196;2023-02-18T08:04:13;30.85;;;6.95;;
48268;SDS011;34088;52.232;5.196;2023-02-18T08:06:40;26.48;;;6.03;;
48268;SDS011;34088;52.232;5.196;2023-02-18T08:09:12;22.80;;;5.72;;
48268;SDS011;34088;52.232;5.196;2023-02-18T08:11:39;27.35;;;5.25;;
48268;SDS011;34088;52.232;5.196;2023-02-18T08:14:04;25.65;;;5.32;;
48268;SDS011;34088;52.232;5.196;2023-02-18T08:16:30;29.17;;;5.35;;
48268;SDS011;34088;52.232;5.196;2023-02-18T08:18:55;22.10;;;4.13;;
48268;SDS011;34088;52.232;5.196;2023-02-18T08:21:22;30.45;;;6.00;;
48268;SDS011;34088;52.232;5.196;2023-02-18T08:23:49;25.13;;;6.35;;
48268;SDS011;34088;52.232;5.196;2023-02-18T08:26:14;24.20;;;5.45;;
48268;SDS011;34088;52.232;5.196;2023-02-18T08:28:41;29.10;;;5.40;;
48268;SDS011;34088;52.232;5.196;2023-02-18T08:31:12;27.83;;;4.32;;
48268;SDS011;34088;52.232;5.196;2023-02-18T08:33:41;28.55;;;4.82;;
48268;SDS011;34088;52.232;5.196;2023-02-18T08:36:06;26.52;;;5.07;;
48268;SDS011;34088;52.232;5.196;2023-02-18T08:38:34;28.40;;;5.60;;
48268;SDS011;34088;52.232;5.196;2023-02-18T08:41:00;23.70;;;4.07;;
48268;SDS011;34088;52.232;5.196;2023-02-18T08:43:27;27.13;;;4.97;;
48268;SDS011;34088;52.232;5.196;2023-02-18T08:45:52;24.50;;;4.65;;
48268;SDS011;34088;52.232;5.196;2023-02-18T08:48:18;31.05;;;5.18;;
48268;SDS011;34088;52.232;5.196;2023-02-18T08:50:43;22.17;;;4.53;;
48268;SDS011;34088;52.232;5.196;2023-02-18T08:53:09;24.27;;;4.38;;
48268;SDS011;34088;52.232;5.196;2023-02-18T08:55:34;23.67;;;4.63;;
48268;SDS011;34088;52.232;5.196;2023-02-18T08:58:03;21.75;;;4.38;;
48268;SDS011;34088;52.232;5.196;2023-02-18T09:00:28;24.77;;;4.65;;
48268;SDS011;34088;52.232;5.196;2023-02-18T09:02:54;29.70;;;5.32;;
48268;SDS011;34088;52.232;5.196;2023-02-18T09:05:19;21.23;;;5.13;;
48268;SDS011;34088;52.232;5.196;2023-02-18T09:07:45;23.50;;;4.03;;
48268;SDS011;34088;52.232;5.196;2023-02-18T09:10:10;23.85;;;4.55;;
48268;SDS011;34088;52.232;5.196;2023-02-18T09:12:36;25.55;;;4.40;;
48268;SDS011;34088;52.232;5.196;2023-02-18T09:15:02;21.40;;;4.30;;
48268;SDS011;34088;52.232;5.196;2023-02-18T09:17:29;23.73;;;4.53;;
48268;SDS011;34088;52.232;5.196;2023-02-18T09:19:54;22.92;;;3.65;;
48268;SDS011;34088;52.232;5.196;2023-02-18T09:22:20;18.80;;;3.53;;
48268;SDS011;34088;52.232;5.196;2023-02-18T09:24:46;22.38;;;3.90;;
48268;SDS011;34088;52.232;5.196;2023-02-18T09:27:11;23.92;;;4.28;;
48268;SDS011;34088;52.232;5.196;2023-02-18T09:29:38;23.13;;;4.28;;
48268;SDS011;34088;52.232;5.196;2023-02-18T09:32:04;23.58;;;4.95;;
48268;SDS011;34088;52.232;5.196;2023-02-18T09:34:30;25.83;;;5.13;;
48268;SDS011;34088;52.232;5.196;2023-02-18T09:36:56;26.80;;;6.03;;
48268;SDS011;34088;52.232;5.196;2023-02-18T09:39:22;23.00;;;4.47;;
48268;SDS011;34088;52.232;5.196;2023-02-18T09:41:49;19.95;;;4.05;;
48268;SDS011;34088;52.232;5.196;2023-02-18T09:44:31;27.33;;;4.38;;
48268;SDS011;34088;52.232;5.196;2023-02-18T09:50:03;25.98;;;4.82;;
48268;SDS011;34088;52.232;5.196;2023-02-18T09:52:32;18.50;;;4.00;;
48268;SDS011;34088;52.232;5.196;2023-02-18T09:55:05;17.63;;;3.63;;
48268;SDS011;34088;52.232;5.196;2023-02-18T09:57:42;17.92;;;3.85;;
48268;SDS011;34088;52.232;5.196;2023-02-18T10:02:44;24.60;;;4.25;;
48268;SDS011;34088;52.232;5.196;2023-02-18T10:05:17;22.42;;;4.70;;
48268;SDS011;34088;52.232;5.196;2023-02-18T10:07:43;25.35;;;4.25;;
48268;SDS011;34088;52.232;5.196;2023-02-18T10:13:03;24.67;;;4.93;;
48268;SDS011;34088;52.232;5.196;2023-02-18T10:15:30;19.20;;;3.40;;
48268;SDS011;34088;52.232;5.196;2023-02-18T10:17:56;19.70;;;4.07;;
48268;SDS011;34088;52.232;5.196;2023-02-18T10:20:23;15.45;;;4.28;;
48268;SDS011;34088;52.232;5.196;2023-02-18T10:22:51;17.25;;;3.58;;
48268;SDS011;34088;52.232;5.196;2023-02-18T10:25:19;19.95;;;3.67;;
48268;SDS011;34088;52.232;5.196;2023-02-18T10:27:46;17.20;;;3.55;;
48268;SDS011;34088;52.232;5.196;2023-02-18T10:32:45;18.98;;;3.50;;
48268;SDS011;34088;52.232;5.196;2023-02-18T10:35:23;19.02;;;4.82;;
48268;SDS011;34088;52.232;5.196;2023-02-18T10:38:12;20.75;;;6.13;;
48268;SDS011;34088;52.232;5.196;2023-02-18T10:46:55;15.48;;;3.35;;
48268;SDS011;34088;52.232;5.196;2023-02-18T10:49:53;22.85;;;3.50;;
48268;SDS011;34088;52.232;5.196;2023-02-18T10:52:22;15.13;;;3.55;;
48268;SDS011;34088;52.232;5.196;2023-02-18T10:57:24;18.70;;;3.92;;
48268;SDS011;34088;52.232;5.196;2023-02-18T10:59:58;21.98;;;3.90;;
48268;SDS011;34088;52.232;5.196;2023-02-18T11:02:27;23.00;;;4.00;;
48268;SDS011;34088;52.232;5.196;2023-02-18T11:04:56;25.50;;;6.47;;
48268;SDS011;34088;52.232;5.196;2023-02-18T11:07:28;17.40;;;3.60;;
48268;SDS011;34088;52.232;5.196;2023-02-18T11:10:00;23.40;;;3.72;;
48268;SDS011;34088;52.232;5.196;2023-02-18T11:12:38;16.13;;;3.15;;
48268;SDS011;34088;52.232;5.196;2023-02-18T11:17:42;19.42;;;3.85;;
48268;SDS011;34088;52.232;5.196;2023-02-18T11:22:46;18.70;;;3.70;;
48268;SDS011;34088;52.232;5.196;2023-02-18T11:25:23;21.13;;;3.67;;
48268;SDS011;34088;52.232;5.196;2023-02-18T11:27:57;18.80;;;3.63;;
48268;SDS011;34088;52.232;5.196;2023-02-18T11:30:41;21.90;;;4.03;;
48268;SDS011;34088;52.232;5.196;2023-02-18T11:33:09;13.63;;;3.55;;
48268;SDS011;34088;52.232;5.196;2023-02-18T11:35:51;18.65;;;3.72;;
48268;SDS011;34088;52.232;5.196;2023-02-18T11:38:22;16.20;;;3.30;;
48268;SDS011;34088;52.232;5.196;2023-02-18T11:40:54;24.38;;;3.88;;
48268;SDS011;34088;52.232;5.196;2023-02-18T11:43:21;17.15;;;3.17;;
48268;SDS011;34088;52.232;5.196;2023-02-18T11:46:06;16.98;;;3.53;;
48268;SDS011;34088;52.232;5.196;2023-02-18T11:48:36;17.15;;;3.15;;
48268;SDS011;34088;52.232;5.196;2023-02-18T11:51:01;15.50;;;2.90;;
48268;SDS011;34088;52.232;5.196;2023-02-18T11:55:55;16.08;;;2.90;;
48268;SDS011;34088;52.232;5.196;2023-02-18T11:58:23;15.60;;;3.10;;
48268;SDS011;34088;52.232;5.196;2023-02-18T12:00:49;16.48;;;3.90;;
48268;SDS011;34088;52.232;5.196;2023-02-18T12:03:59;18.77;;;3.70;;
48268;SDS011;34088;52.232;5.196;2023-02-18T12:06:22;17.17;;;3.47;;
48268;SDS011;34088;52.232;5.196;2023-02-18T12:08:56;16.63;;;3.42;;
48268;SDS011;34088;52.232;5.196;2023-02-18T12:11:51;16.83;;;3.47;;
48268;SDS011;34088;52.232;5.196;2023-02-18T12:14:20;15.40;;;3.30;;
48268;SDS011;34088;52.232;5.196;2023-02-18T12:17:10;13.70;;;2.90;;
48268;SDS011;34088;52.232;5.196;2023-02-18T12:27:53;16.63;;;3.17;;
48268;SDS011;34088;52.232;5.196;2023-02-18T12:41:18;14.98;;;2.67;;
48268;SDS011;34088;52.232;5.196;2023-02-18T12:54:42;9.63;;;3.55;;
48268;SDS011;34088;52.232;5.196;2023-02-18T12:57:39;9.52;;;3.00;;
48268;SDS011;34088;52.232;5.196;2023-02-18T13:06:02;13.93;;;3.92;;
48268;SDS011;34088;52.232;5.196;2023-02-18T13:08:40;11.88;;;3.00;;
48268;SDS011;34088;52.232;5.196;2023-02-18T13:11:42;8.20;;;2.60;;
48268;SDS011;34088;52.232;5.196;2023-02-18T13:14:12;10.45;;;2.75;;
48268;SDS011;34088;52.232;5.196;2023-02-18T13:16:48;8.48;;;2.83;;
48268;SDS011;34088;52.232;5.196;2023-02-18T13:19:20;10.05;;;3.25;;
48268;SDS011;34088;52.232;5.196;2023-02-18T13:21:57;12.35;;;2.88;;
48268;SDS011;34088;52.232;5.196;2023-02-18T13:24:34;9.10;;;2.53;;
48268;SDS011;34088;52.232;5.196;2023-02-18T13:35:40;10.65;;;2.70;;
48268;SDS011;34088;52.232;5.196;2023-02-18T13:40:58;12.00;;;2.95;;
48268;SDS011;34088;52.232;5.196;2023-02-18T13:43:31;12.00;;;3.17;;
48268;SDS011;34088;52.232;5.196;2023-02-18T13:48:29;9.73;;;2.70;;
48268;SDS011;34088;52.232;5.196;2023-02-18T13:51:03;9.98;;;2.58;;
48268;SDS011;34088;52.232;5.196;2023-02-18T13:53:31;12.55;;;2.65;;
48268;SDS011;34088;52.232;5.196;2023-02-18T13:56:02;12.93;;;3.22;;
48268;SDS011;34088;52.232;5.196;2023-02-18T13:58:46;10.55;;;2.70;;
48268;SDS011;34088;52.232;5.196;2023-02-18T14:01:20;9.10;;;2.80;;
48268;SDS011;34088;52.232;5.196;2023-02-18T14:09:54;11.38;;;2.50;;
48268;SDS011;34088;52.232;5.196;2023-02-18T14:15:53;8.60;;;2.78;;
48268;SDS011;34088;52.232;5.196;2023-02-18T14:20:51;12.52;;;2.85;;
48268;SDS011;34088;52.232;5.196;2023-02-18T14:26:05;13.77;;;2.90;;
48268;SDS011;34088;52.232;5.196;2023-02-18T14:33:41;15.05;;;3.40;;
48268;SDS011;34088;52.232;5.196;2023-02-18T14:39:01;12.10;;;3.13;;
48268;SDS011;34088;52.232;5.196;2023-02-18T14:50:15;13.05;;;3.28;;
48268;SDS011;34088;52.232;5.196;2023-02-18T14:52:44;12.45;;;3.13;;
48268;SDS011;34088;52.232;5.196;2023-02-18T14:55:15;14.13;;;3.85;;
48268;SDS011;34088;52.232;5.196;2023-02-18T14:57:53;13.05;;;2.85;;
48268;SDS011;34088;52.232;5.196;2023-02-18T15:00:23;14.25;;;3.47;;
48268;SDS011;34088;52.232;5.196;2023-02-18T15:02:53;9.88;;;2.72;;
48268;SDS011;34088;52.232;5.196;2023-02-18T15:05:21;13.15;;;3.10;;
48268;SDS011;34088;52.232;5.196;2023-02-18T15:08:01;12.88;;;2.97;;
48268;SDS011;34088;52.232;5.196;2023-02-18T15:12:59;13.93;;;3.28;;
48268;SDS011;34088;52.232;5.196;2023-02-18T15:15:26;10.40;;;3.10;;
48268;SDS011;34088;52.232;5.196;2023-02-18T15:17:52;11.73;;;3.00;;
48268;SDS011;34088;52.232;5.196;2023-02-18T15:20:17;14.48;;;3.17;;
48268;SDS011;34088;52.232;5.196;2023-02-18T15:22:43;12.18;;;3.60;;
48268;SDS011;34088;52.232;5.196;2023-02-18T15:25:11;14.18;;;3.85;;
48268;SDS011;34088;52.232;5.196;2023-02-18T15:27:38;14.75;;;3.30;;
48268;SDS011;34088;52.232;5.196;2023-02-18T15:30:24;15.77;;;3.78;;
48268;SDS011;34088;52.232;5.196;2023-02-18T15:32:54;11.63;;;3.83;;
48268;SDS011;34088;52.232;5.196;2023-02-18T15:35:27;9.98;;;4.35;;
48268;SDS011;34088;52.232;5.196;2023-02-18T15:37:55;10.52;;;3.28;;
48268;SDS011;34088;52.232;5.196;2023-02-18T15:40:23;9.65;;;3.60;;
48268;SDS011;34088;52.232;5.196;2023-02-18T15:42:52;16.77;;;3.38;;
48268;SDS011;34088;52.232;5.196;2023-02-18T15:45:22;11.18;;;3.53;;
48268;SDS011;34088;52.232;5.196;2023-02-18T15:47:50;12.73;;;3.47;;
48268;SDS011;34088;52.232;5.196;2023-02-18T15:50:29;13.13;;;3.75;;
48268;SDS011;34088;52.232;5.196;2023-02-18T15:53:03;13.73;;;3.40;;
48268;SDS011;34088;52.232;5.196;2023-02-18T15:55:35;15.07;;;3.85;;
48268;SDS011;34088;52.232;5.196;2023-02-18T16:00:54;11.57;;;3.35;;
48268;SDS011;34088;52.232;5.196;2023-02-18T16:03:28;14.75;;;3.58;;
48268;SDS011;34088;52.232;5.196;2023-02-18T16:06:15;15.73;;;3.50;;
48268;SDS011;34088;52.232;5.196;2023-02-18T16:11:33;12.65;;;3.72;;
48268;SDS011;34088;52.232;5.196;2023-02-18T16:14:01;10.63;;;3.42;;
48268;SDS011;34088;52.232;5.196;2023-02-18T16:16:31;18.80;;;3.88;;
48268;SDS011;34088;52.232;5.196;2023-02-18T16:19:00;16.45;;;3.50;;
48268;SDS011;34088;52.232;5.196;2023-02-18T16:21:37;13.48;;;3.10;;
48268;SDS011;34088;52.232;5.196;2023-02-18T16:26:49;17.60;;;3.38;;
48268;SDS011;34088;52.232;5.196;2023-02-18T16:29:19;11.30;;;3.50;;
48268;SDS011;34088;52.232;5.196;2023-02-18T16:31:48;12.55;;;3.60;;
48268;SDS011;34088;52.232;5.196;2023-02-18T16:34:13;15.90;;;4.00;;
48268;SDS011;34088;52.232;5.196;2023-02-18T16:36:39;10.68;;;3.33;;
48268;SDS011;34088;52.232;5.196;2023-02-18T16:39:32;17.83;;;4.18;;
48268;SDS011;34088;52.232;5.196;2023-02-18T16:41:58;16.80;;;4.45;;
48268;SDS011;34088;52.232;5.196;2023-02-18T16:44:24;13.23;;;4.00;;
48268;SDS011;34088;52.232;5.196;2023-02-18T16:46:49;14.70;;;4.10;;
48268;SDS011;34088;52.232;5.196;2023-02-18T16:49:15;15.40;;;4.00;;
48268;SDS011;34088;52.232;5.196;2023-02-18T16:51:41;12.32;;;3.35;;
48268;SDS011;34088;52.232;5.196;2023-02-18T16:54:11;14.45;;;3.83;;
48268;SDS011;34088;52.232;5.196;2023-02-18T16:56:37;17.10;;;4.55;;
48268;SDS011;34088;52.232;5.196;2023-02-18T16:59:03;15.65;;;4.38;;
48268;SDS011;34088;52.232;5.196;2023-02-18T17:01:35;17.77;;;4.60;;
48268;SDS011;34088;52.232;5.196;2023-02-18T17:04:05;14.98;;;3.97;;
48268;SDS011;34088;52.232;5.196;2023-02-18T17:06:31;14.75;;;4.38;;
48268;SDS011;34088;52.232;5.196;2023-02-18T17:08:57;19.95;;;5.00;;
48268;SDS011;34088;52.232;5.196;2023-02-18T17:11:30;19.67;;;5.68;;
48268;SDS011;34088;52.232;5.196;2023-02-18T17:13:57;17.58;;;5.00;;
48268;SDS011;34088;52.232;5.196;2023-02-18T17:16:23;15.27;;;4.78;;
48268;SDS011;34088;52.232;5.196;2023-02-18T17:18:50;21.15;;;6.55;;
48268;SDS011;34088;52.232;5.196;2023-02-18T17:21:16;19.27;;;6.90;;
48268;SDS011;34088;52.232;5.196;2023-02-18T17:23:43;17.45;;;5.38;;
48268;SDS011;34088;52.232;5.196;2023-02-18T17:26:10;26.73;;;6.65;;
48268;SDS011;34088;52.232;5.196;2023-02-18T17:28:40;18.98;;;6.13;;
48268;SDS011;34088;52.232;5.196;2023-02-18T17:31:07;23.33;;;7.85;;
48268;SDS011;34088;52.232;5.196;2023-02-18T17:33:47;23.05;;;6.13;;